sensor_id;sensor_type;location;lat;lon;timestamp;pressure;altitude;pressure_sealevel;temperature;humidity
21706;BME280;11014;53.076;18.208;2023-02-17T00:01:49;101562.78;;;10.09;63.56
21706;BME280;11014;53.076;18.208;2023-02-17T00:04:17;101569.38;;;10.06;63.49
21706;BME280;11014;53.076;18.208;2023-02-17T00:06:46;101567.75;;;10.12;63.11
21706;BME280;11014;53.076;18.208;2023-02-17T00:09:14;101561.59;;;10.18;63.27
21706;BME280;11014;53.076;18.208;2023-02-17T00:11:43;101564.06;;;10.26;63.00
21706;BME280;11014;53.076;18.208;2023-02-17T00:14:12;101561.41;;;10.33;62.69
21706;BME280;11014;53.076;18.208;2023-02-17T00:16:41;101559.31;;;10.41;62.57
21706;BME280;11014;53.076;18.208;2023-02-17T00:19:11;101549.81;;;10.45;62.42
21706;BME280;11014;53.076;18.208;2023-02-17T00:21:58;101553.72;;;10.49;62.08
21706;BME280;11014;53.076;18.208;2023-02-17T00:24:29;101552.50;;;10.52;61.79
21706;BME280;11014;53.076;18.208;2023-02-17T00:26:58;101554.38;;;10.51;61.99
21706;BME280;11014;53.076;18.208;2023-02-17T00:29:27;101554.97;;;10.53;62.02
21706;BME280;11014;53.076;18.208;2023-02-17T00:31:56;101552.91;;;10.55;61.64
21706;BME280;11014;53.076;18.208;2023-02-17T00:34:24;101551.47;;;10.59;61.63
21706;BME280;11014;53.076;18.208;2023-02-17T00:36:55;101560.16;;;10.61;61.56
21706;BME280;11014;53.076;18.208;2023-02-17T00:39:27;101553.13;;;10.67;61.54
21706;BME280;11014;53.076;18.208;2023-02-17T00:41:55;101548.16;;;10.70;61.25
21706;BME280;11014;53.076;18.208;2023-02-17T00:44:24;101543.59;;;10.71;61.28
21706;BME280;11014;53.076;18.208;2023-02-17T00:46:52;101540.09;;;10.70;61.25
21706;BME280;11014;53.076;18.208;2023-02-17T00:49:24;101538.44;;;10.69;61.43
21706;BME280;11014;53.076;18.208;2023-02-17T00:51:53;101536.78;;;10.75;61.03
21706;BME280;11014;53.076;18.208;2023-02-17T00:54:22;101531.41;;;10.75;61.16
21706;BME280;11014;53.076;18.208;2023-02-17T00:56:51;101526.44;;;10.79;60.90
21706;BME280;11014;53.076;18.208;2023-02-17T00:59:20;101528.50;;;10.83;61.10
21706;BME280;11014;53.076;18.208;2023-02-17T01:01:48;101527.47;;;10.84;61.17
21706;BME280;11014;53.076;18.208;2023-02-17T01:04:17;101526.22;;;10.87;61.18
21706;BME280;11014;53.076;18.208;2023-02-17T01:06:46;101533.22;;;10.88;60.91
21706;BME280;11014;53.076;18.208;2023-02-17T01:09:15;101521.88;;;10.86;60.71
21706;BME280;11014;53.076;18.208;2023-02-17T01:11:44;101518.97;;;10.81;61.00
21706;BME280;11014;53.076;18.208;2023-02-17T01:14:13;101515.28;;;10.82;60.80
21706;BME280;11014;53.076;18.208;2023-02-17T01:16:47;101517.09;;;10.88;61.05
21706;BME280;11014;53.076;18.208;2023-02-17T01:19:17;101512.75;;;10.93;60.52
21706;BME280;11014;53.076;18.208;2023-02-17T01:21:49;101495.38;;;10.96;60.81
21706;BME280;11014;53.076;18.208;2023-02-17T01:24:18;101492.88;;;11.01;60.62
21706;BME280;11014;53.076;18.208;2023-02-17T01:26:48;101489.56;;;11.05;60.42
21706;BME280;11014;53.076;18.208;2023-02-17T01:29:16;101488.72;;;11.05;60.56
21706;BME280;11014;53.076;18.208;2023-02-17T01:31:45;101481.25;;;11.07;60.29
21706;BME280;11014;53.076;18.208;2023-02-17T01:34:39;101473.38;;;11.18;60.20
21706;BME280;11014;53.076;18.208;2023-02-17T01:37:08;101477.31;;;11.16;60.01
21706;BME280;11014;53.076;18.208;2023-02-17T01:39:38;101461.78;;;11.18;60.29
21706;BME280;11014;53.076;18.208;2023-02-17T01:42:15;101460.16;;;11.17;60.17
21706;BME280;11014;53.076;18.208;2023-02-17T01:48:13;101451.84;;;11.25;60.14
21706;BME280;11014;53.076;18.208;2023-02-17T01:50:51;101451.03;;;11.18;59.94
21706;BME280;11014;53.076;18.208;2023-02-17T01:53:26;101446.53;;;11.12;59.75
21706;BME280;11014;53.076;18.208;2023-02-17T01:55:56;101444.44;;;11.07;59.56
21706;BME280;11014;53.076;18.208;2023-02-17T01:58:27;101440.94;;;11.07;59.84
21706;BME280;11014;53.076;18.208;2023-02-17T02:00:59;101442.78;;;11.13;59.60
21706;BME280;11014;53.076;18.208;2023-02-17T02:03:31;101439.66;;;11.16;59.61
21706;BME280;11014;53.076;18.208;2023-02-17T02:06:05;101439.44;;;11.17;59.81
21706;BME280;11014;53.076;18.208;2023-02-17T02:09:03;101428.06;;;11.22;59.68
21706;BME280;11014;53.076;18.208;2023-02-17T02:11:33;101424.56;;;11.15;59.40
21706;BME280;11014;53.076;18.208;2023-02-17T02:14:04;101423.34;;;11.11;59.60
21706;BME280;11014;53.076;18.208;2023-02-17T02:26:11;101410.16;;;11.03;59.44
21706;BME280;11014;53.076;18.208;2023-02-17T02:31:36;101407.53;;;10.90;59.93
21706;BME280;11014;53.076;18.208;2023-02-17T02:34:15;101404.22;;;10.88;59.99
21706;BME280;11014;53.076;18.208;2023-02-17T02:36:55;101397.03;;;10.82;59.92
21706;BME280;11014;53.076;18.208;2023-02-17T02:39:33;101404.03;;;10.83;59.93
21706;BME280;11014;53.076;18.208;2023-02-17T02:42:05;101406.72;;;10.83;60.21
21706;BME280;11014;53.076;18.208;2023-02-17T02:44:35;101407.38;;;10.78;60.50
21706;BME280;11014;53.076;18.208;2023-02-17T02:47:40;101406.94;;;10.75;60.32
21706;BME280;11014;53.076;18.208;2023-02-17T02:49:55;101405.94;;;10.76;60.45
21706;BME280;11014;53.076;18.208;2023-02-17T02:55:48;101405.50;;;10.79;60.43
21706;BME280;11014;53.076;18.208;2023-02-17T02:58:17;101396.63;;;10.78;60.58
21706;BME280;11014;53.076;18.208;2023-02-17T03:03:29;101387.91;;;10.83;60.86
21706;BME280;11014;53.076;18.208;2023-02-17T03:06:18;101378.81;;;10.84;60.75
21706;BME280;11014;53.076;18.208;2023-02-17T03:08:53;101382.16;;;10.73;61.16
21706;BME280;11014;53.076;18.208;2023-02-17T03:11:24;101378.84;;;10.77;60.85
21706;BME280;11014;53.076;18.208;2023-02-17T03:14:10;101386.28;;;10.82;61.08
21706;BME280;11014;53.076;18.208;2023-02-17T03:16:40;101381.94;;;10.81;60.98
21706;BME280;11014;53.076;18.208;2023-02-17T03:19:10;101377.56;;;10.80;60.86
21706;BME280;11014;53.076;18.208;2023-02-17T03:21:46;101379.25;;;10.74;61.38
21706;BME280;11014;53.076;18.208;2023-02-17T03:24:16;101365.22;;;10.72;61.42
21706;BME280;11014;53.076;18.208;2023-02-17T03:26:45;101369.13;;;10.76;61.36
21706;BME280;11014;53.076;18.208;2023-02-17T03:29:14;101368.50;;;10.74;61.48
21706;BME280;11014;53.076;18.208;2023-02-17T03:31:42;101360.06;;;10.70;61.42
21706;BME280;11014;53.076;18.208;2023-02-17T03:34:11;101356.38;;;10.65;61.54
21706;BME280;11014;53.076;18.208;2023-02-17T03:36:39;101356.31;;;10.71;61.61
21706;BME280;11014;53.076;18.208;2023-02-17T03:39:08;101351.59;;;10.74;61.46
21706;BME280;11014;53.076;18.208;2023-02-17T03:41:36;101350.53;;;10.75;61.55
21706;BME280;11014;53.076;18.208;2023-02-17T03:44:05;101360.25;;;10.76;61.33
21706;BME280;11014;53.076;18.208;2023-02-17T03:46:33;101352.59;;;10.73;61.26
21706;BME280;11014;53.076;18.208;2023-02-17T03:49:03;101355.06;;;10.81;61.15
21706;BME280;11014;53.076;18.208;2023-02-17T03:51:32;101362.75;;;10.70;61.53
21706;BME280;11014;53.076;18.208;2023-02-17T03:54:01;101353.63;;;10.78;61.22
21706;BME280;11014;53.076;18.208;2023-02-17T03:56:29;101345.31;;;10.80;61.36
21706;BME280;11014;53.076;18.208;2023-02-17T03:58:58;101346.59;;;10.77;61.11
21706;BME280;11014;53.076;18.208;2023-02-17T04:01:26;101343.28;;;10.75;61.14
21706;BME280;11014;53.076;18.208;2023-02-17T04:03:55;101337.09;;;10.75;61.20
21706;BME280;11014;53.076;18.208;2023-02-17T04:06:24;101332.13;;;10.71;61.40
21706;BME280;11014;53.076;18.208;2023-02-17T04:08:53;101320.97;;;10.75;61.22
21706;BME280;11014;53.076;18.208;2023-02-17T04:11:21;101322.19;;;10.79;61.18
21706;BME280;11014;53.076;18.208;2023-02-17T04:13:50;101313.50;;;10.77;60.96
21706;BME280;11014;53.076;18.208;2023-02-17T04:16:18;101316.00;;;10.78;60.96
21706;BME280;11014;53.076;18.208;2023-02-17T04:18:47;101311.44;;;10.79;60.72
21706;BME280;11014;53.076;18.208;2023-02-17T04:21:16;101305.66;;;10.75;60.84
21706;BME280;11014;53.076;18.208;2023-02-17T04:23:45;101314.41;;;10.64;61.41
21706;BME280;11014;53.076;18.208;2023-02-17T04:26:14;101304.09;;;10.61;61.40
21706;BME280;11014;53.076;18.208;2023-02-17T04:28:43;101299.72;;;10.66;61.11
21706;BME280;11014;53.076;18.208;2023-02-17T04:31:11;101298.09;;;10.65;61.27
21706;BME280;11014;53.076;18.208;2023-02-17T04:33:40;101295.19;;;10.60;61.24
21706;BME280;11014;53.076;18.208;2023-02-17T04:36:10;101293.19;;;10.49;61.68
21706;BME280;11014;53.076;18.208;2023-02-17T04:38:39;101289.25;;;10.52;61.71
21706;BME280;11014;53.076;18.208;2023-02-17T04:41:07;101294.00;;;10.56;61.30
21706;BME280;11014;53.076;18.208;2023-02-17T04:43:36;101286.38;;;10.47;61.42
21706;BME280;11014;53.076;18.208;2023-02-17T04:46:05;101290.72;;;10.41;61.86
21706;BME280;11014;53.076;18.208;2023-02-17T04:48:34;101290.13;;;10.39;61.85
21706;BME280;11014;53.076;18.208;2023-02-17T04:51:03;101286.19;;;10.48;61.65
21706;BME280;11014;53.076;18.208;2023-02-17T04:53:32;101282.19;;;10.57;60.99
21706;BME280;11014;53.076;18.208;2023-02-17T04:56:01;101287.38;;;10.59;60.99
21706;BME280;11014;53.076;18.208;2023-02-17T04:58:29;101276.63;;;10.59;60.78
21706;BME280;11014;53.076;18.208;2023-02-17T05:00:58;101283.84;;;10.58;60.67
21706;BME280;11014;53.076;18.208;2023-02-17T05:03:28;101283.00;;;10.58;60.74
21706;BME280;11014;53.076;18.208;2023-02-17T05:05:56;101281.88;;;10.41;60.95
21706;BME280;11014;53.076;18.208;2023-02-17T05:08:26;101292.56;;;10.47;61.06
21706;BME280;11014;53.076;18.208;2023-02-17T05:10:54;101284.09;;;10.50;60.98
21706;BME280;11014;53.076;18.208;2023-02-17T05:13:23;101270.66;;;10.50;60.80
21706;BME280;11014;53.076;18.208;2023-02-17T05:15:51;101277.03;;;10.56;60.65
21706;BME280;11014;53.076;18.208;2023-02-17T05:18:20;101276.44;;;10.54;60.57
21706;BME280;11014;53.076;18.208;2023-02-17T05:20:48;101264.03;;;10.53;60.92
21706;BME280;11014;53.076;18.208;2023-02-17T05:23:17;101271.06;;;10.54;60.80
21706;BME280;11014;53.076;18.208;2023-02-17T05:25:45;101271.44;;;10.57;60.66
21706;BME280;11014;53.076;18.208;2023-02-17T05:28:14;101269.81;;;10.56;60.44
21706;BME280;11014;53.076;18.208;2023-02-17T05:30:42;101267.13;;;10.56;60.63
21706;BME280;11014;53.076;18.208;2023-02-17T05:33:11;101267.72;;;10.58;60.60
21706;BME280;11014;53.076;18.208;2023-02-17T05:35:39;101264.84;;;10.60;60.25
21706;BME280;11014;53.076;18.208;2023-02-17T05:38:08;101262.53;;;10.63;60.55
21706;BME280;11014;53.076;18.208;2023-02-17T05:40:37;101269.63;;;10.51;60.59
21706;BME280;11014;53.076;18.208;2023-02-17T05:43:11;101266.88;;;10.64;60.61
21706;BME280;11014;53.076;18.208;2023-02-17T05:45:39;101253.00;;;10.67;60.42
21706;BME280;11014;53.076;18.208;2023-02-17T05:48:08;101259.22;;;10.68;60.51
21706;BME280;11014;53.076;18.208;2023-02-17T05:50:37;101247.41;;;10.69;60.54
21706;BME280;11014;53.076;18.208;2023-02-17T05:53:05;101252.59;;;10.70;60.71
21706;BME280;11014;53.076;18.208;2023-02-17T05:55:34;101254.88;;;10.67;60.88
21706;BME280;11014;53.076;18.208;2023-02-17T05:58:03;101251.53;;;10.71;60.97
21706;BME280;11014;53.076;18.208;2023-02-17T06:00:31;101249.91;;;10.70;60.82
21706;BME280;11014;53.076;18.208;2023-02-17T06:03:00;101249.91;;;10.70;60.94
21706;BME280;11014;53.076;18.208;2023-02-17T06:05:29;101250.31;;;10.67;61.01
21706;BME280;11014;53.076;18.208;2023-02-17T06:07:58;101241.41;;;10.74;61.01
21706;BME280;11014;53.076;18.208;2023-02-17T06:10:27;101250.28;;;10.74;60.94
21706;BME280;11014;53.076;18.208;2023-02-17T06:12:56;101253.34;;;10.78;60.95
21706;BME280;11014;53.076;18.208;2023-02-17T06:15:26;101256.47;;;10.75;61.13
21706;BME280;11014;53.076;18.208;2023-02-17T06:17:55;101250.94;;;10.69;61.45
21706;BME280;11014;53.076;18.208;2023-02-17T06:20:24;101246.97;;;10.72;61.32
21706;BME280;11014;53.076;18.208;2023-02-17T06:22:53;101245.72;;;10.75;61.37
21706;BME280;11014;53.076;18.208;2023-02-17T06:25:22;101239.09;;;10.77;61.31
21706;BME280;11014;53.076;18.208;2023-02-17T06:27:51;101237.06;;;10.73;61.47
21706;BME280;11014;53.076;18.208;2023-02-17T06:30:19;101238.53;;;10.68;61.50
21706;BME280;11014;53.076;18.208;2023-02-17T06:32:49;101233.78;;;10.70;61.63
21706;BME280;11014;53.076;18.208;2023-02-17T06:35:17;101235.81;;;10.75;61.37
21706;BME280;11014;53.076;18.208;2023-02-17T06:37:46;101230.44;;;10.75;61.56
21706;BME280;11014;53.076;18.208;2023-02-17T06:40:15;101234.16;;;10.74;61.54
21706;BME280;11014;53.076;18.208;2023-02-17T06:42:44;101233.28;;;10.80;61.11
21706;BME280;11014;53.076;18.208;2023-02-17T06:45:13;101231.25;;;10.76;61.57
21706;BME280;11014;53.076;18.208;2023-02-17T06:47:42;101234.53;;;10.78;61.20
21706;BME280;11014;53.076;18.208;2023-02-17T06:50:11;101230.91;;;10.65;61.86
21706;BME280;11014;53.076;18.208;2023-02-17T06:52:40;101236.28;;;10.65;61.98
21706;BME280;11014;53.076;18.208;2023-02-17T06:55:09;101232.72;;;10.71;61.76
21706;BME280;11014;53.076;18.208;2023-02-17T06:57:38;101229.59;;;10.75;61.73
21706;BME280;11014;53.076;18.208;2023-02-17T07:00:07;101225.09;;;10.68;61.62
21706;BME280;11014;53.076;18.208;2023-02-17T07:02:38;101227.66;;;10.57;61.99
21706;BME280;11014;53.076;18.208;2023-02-17T07:05:07;101226.16;;;10.67;61.89
21706;BME280;11014;53.076;18.208;2023-02-17T07:07:36;101224.91;;;10.63;62.13
21706;BME280;11014;53.076;18.208;2023-02-17T07:10:05;101224.88;;;10.70;62.37
21706;BME280;11014;53.076;18.208;2023-02-17T07:12:35;101222.13;;;10.77;62.03
21706;BME280;11014;53.076;18.208;2023-02-17T07:15:04;101228.75;;;10.81;61.84
21706;BME280;11014;53.076;18.208;2023-02-17T07:17:35;101226.72;;;10.76;62.26
21706;BME280;11014;53.076;18.208;2023-02-17T07:20:04;101215.06;;;10.82;62.15
21706;BME280;11014;53.076;18.208;2023-02-17T07:22:33;101215.91;;;10.83;62.13
21706;BME280;11014;53.076;18.208;2023-02-17T07:25:03;101214.28;;;10.82;62.55
21706;BME280;11014;53.076;18.208;2023-02-17T07:27:34;101210.53;;;10.83;62.53
21706;BME280;11014;53.076;18.208;2023-02-17T07:30:04;101208.28;;;10.80;62.72
21706;BME280;11014;53.076;18.208;2023-02-17T07:32:34;101214.28;;;10.82;62.39
21706;BME280;11014;53.076;18.208;2023-02-17T07:35:04;101218.38;;;10.84;62.55
21706;BME280;11014;53.076;18.208;2023-02-17T07:37:32;101217.13;;;10.87;62.82
21706;BME280;11014;53.076;18.208;2023-02-17T07:40:02;101215.53;;;10.79;62.93
21706;BME280;11014;53.076;18.208;2023-02-17T07:42:31;101217.75;;;10.82;63.23
21706;BME280;11014;53.076;18.208;2023-02-17T07:45:00;101218.00;;;10.81;63.55
21706;BME280;11014;53.076;18.208;2023-02-17T07:47:31;101211.53;;;10.88;63.32
21706;BME280;11014;53.076;18.208;2023-02-17T07:49:59;101218.59;;;10.83;63.64
21706;BME280;11014;53.076;18.208;2023-02-17T07:52:28;101217.56;;;10.84;63.83
21706;BME280;11014;53.076;18.208;2023-02-17T07:54:56;101219.13;;;10.66;65.28
21706;BME280;11014;53.076;18.208;2023-02-17T07:57:25;101204.66;;;10.67;65.25
21706;BME280;11014;53.076;18.208;2023-02-17T07:59:53;101193.91;;;10.67;65.56
21706;BME280;11014;53.076;18.208;2023-02-17T08:02:22;101197.84;;;10.65;66.24
21706;BME280;11014;53.076;18.208;2023-02-17T08:04:51;101190.78;;;10.70;65.83
21706;BME280;11014;53.076;18.208;2023-02-17T08:07:20;101193.31;;;10.65;66.61
21706;BME280;11014;53.076;18.208;2023-02-17T08:09:51;101184.94;;;10.49;67.31
21706;BME280;11014;53.076;18.208;2023-02-17T08:12:38;101180.09;;;10.57;67.55
21706;BME280;11014;53.076;18.208;2023-02-17T08:15:25;101181.34;;;10.61;67.52
21706;BME280;11014;53.076;18.208;2023-02-17T08:17:54;101169.38;;;10.57;67.80
21706;BME280;11014;53.076;18.208;2023-02-17T08:20:23;101169.38;;;10.57;67.75
21706;BME280;11014;53.076;18.208;2023-02-17T08:22:52;101156.56;;;10.59;67.93
21706;BME280;11014;53.076;18.208;2023-02-17T08:25:20;101151.56;;;10.63;67.86
21706;BME280;11014;53.076;18.208;2023-02-17T08:27:49;101147.63;;;10.65;67.84
21706;BME280;11014;53.076;18.208;2023-02-17T08:30:18;101135.50;;;10.56;68.03
21706;BME280;11014;53.076;18.208;2023-02-17T08:32:46;101142.47;;;10.64;67.94
21706;BME280;11014;53.076;18.208;2023-02-17T08:35:15;101136.50;;;10.62;68.04
21706;BME280;11014;53.076;18.208;2023-02-17T08:37:46;101135.56;;;10.75;67.57
21706;BME280;11014;53.076;18.208;2023-02-17T08:40:15;101130.88;;;10.63;68.20
21706;BME280;11014;53.076;18.208;2023-02-17T08:42:45;101126.34;;;10.64;68.53
21706;BME280;11014;53.076;18.208;2023-02-17T08:45:15;101120.94;;;10.70;68.12
21706;BME280;11014;53.076;18.208;2023-02-17T08:47:43;101122.34;;;10.73;68.23
21706;BME280;11014;53.076;18.208;2023-02-17T08:50:13;101128.31;;;10.75;68.43
21706;BME280;11014;53.076;18.208;2023-02-17T08:52:44;101118.94;;;10.59;68.75
21706;BME280;11014;53.076;18.208;2023-02-17T08:55:12;101115.91;;;10.74;68.59
21706;BME280;11014;53.076;18.208;2023-02-17T08:57:41;101126.47;;;10.76;68.49
21706;BME280;11014;53.076;18.208;2023-02-17T09:00:10;101121.25;;;10.81;68.18
21706;BME280;11014;53.076;18.208;2023-02-17T09:02:39;101111.81;;;10.71;68.48
21706;BME280;11014;53.076;18.208;2023-02-17T09:05:12;101108.53;;;10.69;68.76
21706;BME280;11014;53.076;18.208;2023-02-17T09:07:41;101108.41;;;10.83;68.33
21706;BME280;11014;53.076;18.208;2023-02-17T09:10:11;101107.97;;;10.86;68.49
21706;BME280;11014;53.076;18.208;2023-02-17T09:12:40;101108.75;;;10.93;68.34
21706;BME280;11014;53.076;18.208;2023-02-17T09:15:08;101102.47;;;10.99;68.03
21706;BME280;11014;53.076;18.208;2023-02-17T09:17:39;101088.88;;;10.94;68.33
21706;BME280;11014;53.076;18.208;2023-02-17T09:20:09;101094.63;;;10.97;68.21
21706;BME280;11014;53.076;18.208;2023-02-17T09:22:52;101091.34;;;10.95;68.57
21706;BME280;11014;53.076;18.208;2023-02-17T09:25:20;101085.38;;;10.68;69.29
21706;BME280;11014;53.076;18.208;2023-02-17T09:27:50;101097.63;;;10.89;69.14
21706;BME280;11014;53.076;18.208;2023-02-17T09:30:18;101091.78;;;10.92;69.24
21706;BME280;11014;53.076;18.208;2023-02-17T09:32:47;101080.66;;;10.89;69.36
21706;BME280;11014;53.076;18.208;2023-02-17T09:35:18;101075.00;;;10.97;68.92
21706;BME280;11014;53.076;18.208;2023-02-17T09:37:47;101071.00;;;11.06;68.59
21706;BME280;11014;53.076;18.208;2023-02-17T09:40:23;101083.06;;;11.15;68.68
21706;BME280;11014;53.076;18.208;2023-02-17T09:42:55;101069.28;;;11.11;68.83
21706;BME280;11014;53.076;18.208;2023-02-17T09:45:26;101069.28;;;11.11;68.88
21706;BME280;11014;53.076;18.208;2023-02-17T09:48:06;101065.91;;;11.16;68.84
21706;BME280;11014;53.076;18.208;2023-02-17T09:51:14;101065.66;;;11.17;68.93
21706;BME280;11014;53.076;18.208;2023-02-17T09:54:04;101054.22;;;11.04;69.47
21706;BME280;11014;53.076;18.208;2023-02-17T09:56:40;101041.94;;;11.14;69.20
21706;BME280;11014;53.076;18.208;2023-02-17T09:59:15;101040.53;;;11.12;69.34
21706;BME280;11014;53.076;18.208;2023-02-17T10:01:46;101055.88;;;11.23;69.33
21706;BME280;11014;53.076;18.208;2023-02-17T10:04:26;101033.19;;;11.19;69.30
21706;BME280;11014;53.076;18.208;2023-02-17T10:07:03;101026.19;;;11.36;68.94
21706;BME280;11014;53.076;18.208;2023-02-17T10:09:38;101033.13;;;11.25;68.92
21706;BME280;11014;53.076;18.208;2023-02-17T10:12:25;101019.91;;;11.24;69.26
21706;BME280;11014;53.076;18.208;2023-02-17T10:15:03;101012.28;;;11.39;69.35
21706;BME280;11014;53.076;18.208;2023-02-17T10:17:38;101014.34;;;11.37;68.71
21706;BME280;11014;53.076;18.208;2023-02-17T10:20:11;101007.81;;;11.33;69.54
21706;BME280;11014;53.076;18.208;2023-02-17T10:22:47;101016.91;;;11.14;70.64
21706;BME280;11014;53.076;18.208;2023-02-17T10:25:31;100996.31;;;11.08;71.59
21706;BME280;11014;53.076;18.208;2023-02-17T10:28:07;100995.09;;;11.04;72.60
21706;BME280;11014;53.076;18.208;2023-02-17T10:30:48;100987.22;;;11.09;72.94
21706;BME280;11014;53.076;18.208;2023-02-17T10:33:24;100984.22;;;11.17;72.82
21706;BME280;11014;53.076;18.208;2023-02-17T10:36:19;100980.31;;;11.13;73.49
21706;BME280;11014;53.076;18.208;2023-02-17T10:38:51;100967.47;;;11.15;73.46
21706;BME280;11014;53.076;18.208;2023-02-17T10:41:33;100954.78;;;11.22;73.52
21706;BME280;11014;53.076;18.208;2023-02-17T10:44:12;100942.81;;;11.36;72.87
21706;BME280;11014;53.076;18.208;2023-02-17T10:46:42;100941.47;;;11.27;72.90
21706;BME280;11014;53.076;18.208;2023-02-17T10:49:29;100933.13;;;11.47;72.55
21706;BME280;11014;53.076;18.208;2023-02-17T10:52:16;100926.09;;;11.46;72.33
21706;BME280;11014;53.076;18.208;2023-02-17T10:54:54;100921.16;;;11.43;72.68
21706;BME280;11014;53.076;18.208;2023-02-17T10:57:27;100916.16;;;11.46;71.78
21706;BME280;11014;53.076;18.208;2023-02-17T10:59:59;100904.50;;;11.52;71.75
21706;BME280;11014;53.076;18.208;2023-02-17T11:02:41;100895.66;;;11.34;71.94
21706;BME280;11014;53.076;18.208;2023-02-17T11:05:28;100892.75;;;11.35;72.43
21706;BME280;11014;53.076;18.208;2023-02-17T11:08:06;100879.13;;;11.60;71.60
21706;BME280;11014;53.076;18.208;2023-02-17T11:10:39;100867.44;;;11.66;71.30
21706;BME280;11014;53.076;18.208;2023-02-17T11:13:29;100864.81;;;11.77;71.13
21706;BME280;11014;53.076;18.208;2023-02-17T11:15:59;100870.53;;;11.81;70.63
21706;BME280;11014;53.076;18.208;2023-02-17T11:18:32;100870.31;;;11.82;70.82
21706;BME280;11014;53.076;18.208;2023-02-17T11:21:09;100854.81;;;11.66;71.38
21706;BME280;11014;53.076;18.208;2023-02-17T11:23:57;100853.84;;;11.49;72.21
21706;BME280;11014;53.076;18.208;2023-02-17T11:26:30;100844.44;;;11.81;71.25
21706;BME280;11014;53.076;18.208;2023-02-17T11:29:13;100837.19;;;11.70;71.79
21706;BME280;11014;53.076;18.208;2023-02-17T11:32:02;100827.09;;;11.66;71.66
21706;BME280;11014;53.076;18.208;2023-02-17T11:34:37;100825.50;;;11.76;71.68
21706;BME280;11014;53.076;18.208;2023-02-17T11:39:47;100805.13;;;11.80;71.54
21706;BME280;11014;53.076;18.208;2023-02-17T11:42:27;100803.38;;;11.74;71.43
21706;BME280;11014;53.076;18.208;2023-02-17T11:44:58;100797.16;;;11.97;71.37
21706;BME280;11014;53.076;18.208;2023-02-17T11:53:56;100772.81;;;11.92;72.31
21706;BME280;11014;53.076;18.208;2023-02-17T11:56:38;100772.81;;;11.92;72.21
21706;BME280;11014;53.076;18.208;2023-02-17T11:59:15;100768.16;;;11.87;72.63
21706;BME280;11014;53.076;18.208;2023-02-17T12:02:14;100764.16;;;12.02;72.39
21706;BME280;11014;53.076;18.208;2023-02-17T12:07:40;100753.13;;;11.57;74.98
21706;BME280;11014;53.076;18.208;2023-02-17T12:10:37;100739.72;;;11.80;75.06
21706;BME280;11014;53.076;18.208;2023-02-17T12:18:48;100727.88;;;11.69;74.77
21706;BME280;11014;53.076;18.208;2023-02-17T12:21:47;100733.06;;;11.82;75.10
21706;BME280;11014;53.076;18.208;2023-02-17T12:27:05;100715.03;;;11.71;76.97
21706;BME280;11014;53.076;18.208;2023-02-17T12:30:00;100706.50;;;11.74;77.19
21706;BME280;11014;53.076;18.208;2023-02-17T12:32:33;100699.69;;;11.60;77.85
21706;BME280;11014;53.076;18.208;2023-02-17T12:35:17;100679.31;;;11.87;77.52
21706;BME280;11014;53.076;18.208;2023-02-17T12:49:53;100647.59;;;12.29;77.92
21706;BME280;11014;53.076;18.208;2023-02-17T12:52:33;100640.94;;;12.20;78.08
21706;BME280;11014;53.076;18.208;2023-02-17T12:55:12;100636.97;;;12.23;77.93
21706;BME280;11014;53.076;18.208;2023-02-17T12:57:51;100626.19;;;12.23;77.71
21706;BME280;11014;53.076;18.208;2023-02-17T13:00:36;100627.56;;;12.25;77.16
21706;BME280;11014;53.076;18.208;2023-02-17T13:03:06;100624.53;;;12.22;77.48
21706;BME280;11014;53.076;18.208;2023-02-17T13:08:52;100611.75;;;12.29;77.40
21706;BME280;11014;53.076;18.208;2023-02-17T13:11:30;100596.66;;;12.28;77.24
21706;BME280;11014;53.076;18.208;2023-02-17T13:14:26;100593.09;;;12.11;78.11
21706;BME280;11014;53.076;18.208;2023-02-17T13:16:57;100593.16;;;11.99;78.29
21706;BME280;11014;53.076;18.208;2023-02-17T13:19:31;100591.16;;;11.95;79.04
21706;BME280;11014;53.076;18.208;2023-02-17T13:22:04;100591.16;;;11.95;79.17
21706;BME280;11014;53.076;18.208;2023-02-17T13:24:36;100577.72;;;11.95;79.32
21706;BME280;11014;53.076;18.208;2023-02-17T13:27:10;100571.28;;;11.96;79.60
21706;BME280;11014;53.076;18.208;2023-02-17T13:29:39;100557.13;;;11.88;79.82
21706;BME280;11014;53.076;18.208;2023-02-17T13:32:10;100544.84;;;11.93;80.47
21706;BME280;11014;53.076;18.208;2023-02-17T13:34:41;100549.22;;;11.82;80.65
21706;BME280;11014;53.076;18.208;2023-02-17T13:39:44;100519.97;;;11.85;81.04
21706;BME280;11014;53.076;18.208;2023-02-17T13:42:34;100519.75;;;11.75;81.15
21706;BME280;11014;53.076;18.208;2023-02-17T13:48:14;100500.03;;;12.15;80.35
21706;BME280;11014;53.076;18.208;2023-02-17T13:50:52;100493.59;;;12.16;80.10
21706;BME280;11014;53.076;18.208;2023-02-17T13:56:05;100472.44;;;12.24;79.82
21706;BME280;11014;53.076;18.208;2023-02-17T13:58:40;100463.28;;;12.09;80.50
21706;BME280;11014;53.076;18.208;2023-02-17T14:01:14;100458.25;;;12.12;81.02
21706;BME280;11014;53.076;18.208;2023-02-17T14:03:49;100443.47;;;12.15;80.70
21706;BME280;11014;53.076;18.208;2023-02-17T14:06:37;100446.31;;;12.25;80.57
21706;BME280;11014;53.076;18.208;2023-02-17T14:09:26;100436.84;;;12.22;80.76
21706;BME280;11014;53.076;18.208;2023-02-17T14:11:56;100434.50;;;12.26;80.62
21706;BME280;11014;53.076;18.208;2023-02-17T14:14:31;100424.28;;;12.28;80.39